Main page
METAR-TAF:

METAR-TAF

Airports :

Ministro Pistarini International Airport

Ezeiza, Argentina

latitude: 34-49S, longitude: 058-32W, elevation: 20 m

Current weather observation

The report was made 30 minutes ago, at 06:00 UTC
Wind 7 kt from the North/Northwest, varying between Northwest and North/Northeast
Temperature 6°C
Humidity 61%
Pressure 1026 hPa
Visibility: 8000 m

METAR: SAEZ 300600Z 34007KT 320V030 8000 NSC 06/M01 Q1026 NOSIG

Time: 03:30 (06:30 UTC)

Forecast

The report was made 1 hour and 30 minutes ago, at 05:00 UTC
Forecast valid from 30 at 06 UTC to 31 at 06 UTC
Wind 8 kt from the North/Northwest
Visibility 10 km or more
no clouds below 1500 m and no cumulonimbus
Becoming
from 30 at 15 UTC to 30 at 17 UTC
Wind 12 kt from the North/Northwest
Becoming
from 30 at 21 UTC to 30 at 23 UTC
Wind 6 kt from the North

TAF: SAEZ 300500Z 3006/3106 34008KT CAVOK TX15/3018Z TN04/3010Z BECMG 3015/3017 34012KT BECMG 3021/3023 35006KT

Weather observations and forecasts of more than 4000 airports (METAR and TAF reports).

The available stations are represented by yellow and red dots on the map.

Hover mouse over dot to see the name of the station.

Then click to see weather observations and forecasts.

To change the map : click on the green buttons with a black cross to zoom in, on the green button with a dash to zoom out, or on the green arrows for adjacent maps.


METAR-TAF: